sensor_id;sensor_type;location;lat;lon;timestamp;P1;durP1;ratioP1;P2;durP2;ratioP2
12852;SDS011;6495;51.808;7.478;2022-12-18T00:01:59;8.27;;;5.47;;
12852;SDS011;6495;51.808;7.478;2022-12-18T00:04:45;8.97;;;6.13;;
12852;SDS011;6495;51.808;7.478;2022-12-18T00:07:33;13.17;;;6.17;;
12852;SDS011;6495;51.808;7.478;2022-12-18T00:10:22;8.63;;;5.33;;
12852;SDS011;6495;51.808;7.478;2022-12-18T00:13:09;9.90;;;5.97;;
12852;SDS011;6495;51.808;7.478;2022-12-18T00:16:00;9.50;;;5.97;;
12852;SDS011;6495;51.808;7.478;2022-12-18T00:18:48;14.20;;;7.10;;
12852;SDS011;6495;51.808;7.478;2022-12-18T00:21:37;8.50;;;5.40;;
12852;SDS011;6495;51.808;7.478;2022-12-18T00:24:25;12.00;;;7.27;;
12852;SDS011;6495;51.808;7.478;2022-12-18T00:27:12;13.70;;;6.07;;
12852;SDS011;6495;51.808;7.478;2022-12-18T00:29:58;16.10;;;6.53;;
12852;SDS011;6495;51.808;7.478;2022-12-18T00:32:44;14.23;;;8.00;;
12852;SDS011;6495;51.808;7.478;2022-12-18T00:35:31;13.10;;;5.87;;
12852;SDS011;6495;51.808;7.478;2022-12-18T00:38:18;8.43;;;5.57;;
12852;SDS011;6495;51.808;7.478;2022-12-18T00:41:06;7.17;;;4.93;;
12852;SDS011;6495;51.808;7.478;2022-12-18T00:43:54;11.33;;;6.27;;
12852;SDS011;6495;51.808;7.478;2022-12-18T00:46:40;18.83;;;6.27;;
12852;SDS011;6495;51.808;7.478;2022-12-18T00:49:27;13.03;;;6.53;;
12852;SDS011;6495;51.808;7.478;2022-12-18T00:52:13;12.10;;;5.53;;
12852;SDS011;6495;51.808;7.478;2022-12-18T00:55:00;14.17;;;5.97;;
12852;SDS011;6495;51.808;7.478;2022-12-18T00:57:51;12.80;;;7.17;;
12852;SDS011;6495;51.808;7.478;2022-12-18T01:00:38;15.43;;;6.93;;
12852;SDS011;6495;51.808;7.478;2022-12-18T01:03:25;13.93;;;6.53;;
12852;SDS011;6495;51.808;7.478;2022-12-18T01:06:12;10.30;;;6.00;;
12852;SDS011;6495;51.808;7.478;2022-12-18T01:09:00;14.80;;;5.27;;
12852;SDS011;6495;51.808;7.478;2022-12-18T01:11:47;18.57;;;7.03;;
12852;SDS011;6495;51.808;7.478;2022-12-18T01:14:35;12.67;;;5.83;;
12852;SDS011;6495;51.808;7.478;2022-12-18T01:17:23;9.57;;;5.63;;
12852;SDS011;6495;51.808;7.478;2022-12-18T01:20:10;7.90;;;5.37;;
12852;SDS011;6495;51.808;7.478;2022-12-18T01:22:58;13.60;;;7.07;;
12852;SDS011;6495;51.808;7.478;2022-12-18T01:25:45;10.10;;;5.67;;
12852;SDS011;6495;51.808;7.478;2022-12-18T01:28:31;10.20;;;4.97;;
12852;SDS011;6495;51.808;7.478;2022-12-18T01:31:20;11.23;;;6.50;;
12852;SDS011;6495;51.808;7.478;2022-12-18T01:34:09;14.10;;;7.07;;
12852;SDS011;6495;51.808;7.478;2022-12-18T01:36:56;11.60;;;5.70;;
12852;SDS011;6495;51.808;7.478;2022-12-18T01:39:43;11.00;;;5.57;;
12852;SDS011;6495;51.808;7.478;2022-12-18T01:42:30;14.33;;;5.87;;
12852;SDS011;6495;51.808;7.478;2022-12-18T01:45:24;13.83;;;5.60;;
12852;SDS011;6495;51.808;7.478;2022-12-18T01:48:14;15.40;;;6.53;;
12852;SDS011;6495;51.808;7.478;2022-12-18T01:51:01;9.67;;;4.90;;
12852;SDS011;6495;51.808;7.478;2022-12-18T01:53:48;9.00;;;5.37;;
12852;SDS011;6495;51.808;7.478;2022-12-18T01:56:35;10.23;;;5.63;;
12852;SDS011;6495;51.808;7.478;2022-12-18T01:59:23;9.63;;;5.80;;
12852;SDS011;6495;51.808;7.478;2022-12-18T02:02:10;23.93;;;7.80;;
12852;SDS011;6495;51.808;7.478;2022-12-18T02:04:59;12.50;;;6.13;;
12852;SDS011;6495;51.808;7.478;2022-12-18T02:07:50;16.80;;;6.17;;
12852;SDS011;6495;51.808;7.478;2022-12-18T02:10:55;12.80;;;5.67;;
12852;SDS011;6495;51.808;7.478;2022-12-18T02:13:52;10.07;;;4.90;;
12852;SDS011;6495;51.808;7.478;2022-12-18T02:16:51;11.00;;;6.03;;
12852;SDS011;6495;51.808;7.478;2022-12-18T02:19:47;11.73;;;5.80;;
12852;SDS011;6495;51.808;7.478;2022-12-18T02:22:55;12.70;;;5.27;;
12852;SDS011;6495;51.808;7.478;2022-12-18T02:26:07;9.90;;;4.67;;
12852;SDS011;6495;51.808;7.478;2022-12-18T02:29:04;9.80;;;6.23;;
12852;SDS011;6495;51.808;7.478;2022-12-18T02:31:57;13.50;;;4.90;;
12852;SDS011;6495;51.808;7.478;2022-12-18T02:34:50;9.47;;;4.73;;
12852;SDS011;6495;51.808;7.478;2022-12-18T02:37:40;11.63;;;5.80;;
12852;SDS011;6495;51.808;7.478;2022-12-18T02:40:30;9.27;;;4.40;;
12852;SDS011;6495;51.808;7.478;2022-12-18T02:43:19;11.40;;;5.50;;
12852;SDS011;6495;51.808;7.478;2022-12-18T02:46:20;6.57;;;4.23;;
12852;SDS011;6495;51.808;7.478;2022-12-18T02:49:25;10.37;;;4.67;;
12852;SDS011;6495;51.808;7.478;2022-12-18T02:52:24;10.70;;;5.67;;
12852;SDS011;6495;51.808;7.478;2022-12-18T02:55:24;8.93;;;5.00;;
12852;SDS011;6495;51.808;7.478;2022-12-18T02:58:26;7.23;;;4.40;;
12852;SDS011;6495;51.808;7.478;2022-12-18T03:01:24;10.43;;;5.30;;
12852;SDS011;6495;51.808;7.478;2022-12-18T03:04:20;12.87;;;5.03;;
12852;SDS011;6495;51.808;7.478;2022-12-18T03:07:21;10.97;;;4.83;;
12852;SDS011;6495;51.808;7.478;2022-12-18T03:10:28;8.57;;;4.53;;
12852;SDS011;6495;51.808;7.478;2022-12-18T03:13:20;7.50;;;4.53;;
12852;SDS011;6495;51.808;7.478;2022-12-18T03:16:16;8.70;;;5.70;;
12852;SDS011;6495;51.808;7.478;2022-12-18T03:19:10;7.67;;;4.00;;
12852;SDS011;6495;51.808;7.478;2022-12-18T03:22:03;7.53;;;4.47;;
12852;SDS011;6495;51.808;7.478;2022-12-18T03:24:53;13.30;;;5.60;;
12852;SDS011;6495;51.808;7.478;2022-12-18T03:27:43;6.83;;;4.63;;
12852;SDS011;6495;51.808;7.478;2022-12-18T03:30:36;10.53;;;4.83;;
12852;SDS011;6495;51.808;7.478;2022-12-18T03:33:27;15.43;;;4.83;;
12852;SDS011;6495;51.808;7.478;2022-12-18T03:36:21;7.20;;;4.67;;
12852;SDS011;6495;51.808;7.478;2022-12-18T03:39:09;13.67;;;5.03;;
12852;SDS011;6495;51.808;7.478;2022-12-18T03:41:57;11.97;;;5.13;;
12852;SDS011;6495;51.808;7.478;2022-12-18T03:44:53;12.13;;;5.40;;
12852;SDS011;6495;51.808;7.478;2022-12-18T03:47:50;8.93;;;5.80;;
12852;SDS011;6495;51.808;7.478;2022-12-18T03:50:46;9.50;;;4.60;;
12852;SDS011;6495;51.808;7.478;2022-12-18T03:53:43;6.17;;;4.40;;
12852;SDS011;6495;51.808;7.478;2022-12-18T03:56:38;8.43;;;5.47;;
12852;SDS011;6495;51.808;7.478;2022-12-18T03:59:31;11.27;;;5.33;;
12852;SDS011;6495;51.808;7.478;2022-12-18T04:02:20;9.77;;;4.57;;
12852;SDS011;6495;51.808;7.478;2022-12-18T04:05:11;11.97;;;4.90;;
12852;SDS011;6495;51.808;7.478;2022-12-18T04:08:00;11.43;;;5.90;;
12852;SDS011;6495;51.808;7.478;2022-12-18T04:10:48;9.87;;;4.80;;
12852;SDS011;6495;51.808;7.478;2022-12-18T04:13:35;12.03;;;4.50;;
12852;SDS011;6495;51.808;7.478;2022-12-18T04:16:24;11.10;;;5.70;;
12852;SDS011;6495;51.808;7.478;2022-12-18T04:19:11;11.60;;;4.73;;
12852;SDS011;6495;51.808;7.478;2022-12-18T04:22:00;12.50;;;4.23;;
12852;SDS011;6495;51.808;7.478;2022-12-18T04:24:46;6.80;;;4.03;;
12852;SDS011;6495;51.808;7.478;2022-12-18T04:27:32;11.60;;;5.37;;
12852;SDS011;6495;51.808;7.478;2022-12-18T04:30:20;12.53;;;4.97;;
12852;SDS011;6495;51.808;7.478;2022-12-18T04:33:08;10.43;;;5.03;;
12852;SDS011;6495;51.808;7.478;2022-12-18T04:35:55;9.43;;;5.27;;
12852;SDS011;6495;51.808;7.478;2022-12-18T04:38:43;6.73;;;4.20;;
12852;SDS011;6495;51.808;7.478;2022-12-18T04:41:30;6.83;;;4.00;;
12852;SDS011;6495;51.808;7.478;2022-12-18T04:44:16;7.30;;;3.70;;
12852;SDS011;6495;51.808;7.478;2022-12-18T04:47:03;4.43;;;3.60;;
12852;SDS011;6495;51.808;7.478;2022-12-18T04:49:50;10.77;;;6.27;;
12852;SDS011;6495;51.808;7.478;2022-12-18T04:52:36;10.13;;;4.83;;
12852;SDS011;6495;51.808;7.478;2022-12-18T04:55:24;9.00;;;5.23;;
12852;SDS011;6495;51.808;7.478;2022-12-18T04:58:12;5.07;;;4.57;;
12852;SDS011;6495;51.808;7.478;2022-12-18T05:00:58;5.67;;;4.33;;
12852;SDS011;6495;51.808;7.478;2022-12-18T05:03:46;16.23;;;5.60;;
12852;SDS011;6495;51.808;7.478;2022-12-18T05:06:32;7.77;;;4.87;;
12852;SDS011;6495;51.808;7.478;2022-12-18T05:09:19;6.60;;;3.83;;
12852;SDS011;6495;51.808;7.478;2022-12-18T05:12:08;7.10;;;4.10;;
12852;SDS011;6495;51.808;7.478;2022-12-18T05:14:54;6.90;;;3.77;;
12852;SDS011;6495;51.808;7.478;2022-12-18T05:17:41;8.43;;;5.23;;
12852;SDS011;6495;51.808;7.478;2022-12-18T05:20:28;8.00;;;5.07;;
12852;SDS011;6495;51.808;7.478;2022-12-18T05:23:15;5.47;;;4.17;;
12852;SDS011;6495;51.808;7.478;2022-12-18T05:26:03;10.27;;;4.27;;
12852;SDS011;6495;51.808;7.478;2022-12-18T05:28:53;10.87;;;3.77;;
12852;SDS011;6495;51.808;7.478;2022-12-18T05:31:43;8.53;;;3.90;;
12852;SDS011;6495;51.808;7.478;2022-12-18T05:34:30;13.00;;;4.30;;
12852;SDS011;6495;51.808;7.478;2022-12-18T05:37:18;5.67;;;4.07;;
12852;SDS011;6495;51.808;7.478;2022-12-18T05:40:06;9.63;;;4.80;;
12852;SDS011;6495;51.808;7.478;2022-12-18T05:42:54;5.30;;;3.20;;
12852;SDS011;6495;51.808;7.478;2022-12-18T05:45:41;8.93;;;4.03;;
12852;SDS011;6495;51.808;7.478;2022-12-18T05:48:28;10.17;;;3.83;;
12852;SDS011;6495;51.808;7.478;2022-12-18T05:51:15;7.20;;;4.17;;
12852;SDS011;6495;51.808;7.478;2022-12-18T05:54:05;5.53;;;2.90;;
12852;SDS011;6495;51.808;7.478;2022-12-18T05:56:52;7.40;;;3.83;;
12852;SDS011;6495;51.808;7.478;2022-12-18T05:59:39;5.90;;;3.67;;
12852;SDS011;6495;51.808;7.478;2022-12-18T06:02:27;5.27;;;3.23;;
12852;SDS011;6495;51.808;7.478;2022-12-18T06:05:14;13.20;;;5.27;;
12852;SDS011;6495;51.808;7.478;2022-12-18T06:08:01;7.93;;;4.20;;
12852;SDS011;6495;51.808;7.478;2022-12-18T06:10:51;7.80;;;3.50;;
12852;SDS011;6495;51.808;7.478;2022-12-18T06:13:38;6.83;;;3.80;;
12852;SDS011;6495;51.808;7.478;2022-12-18T06:16:25;9.03;;;4.07;;
12852;SDS011;6495;51.808;7.478;2022-12-18T06:19:15;8.40;;;3.67;;
12852;SDS011;6495;51.808;7.478;2022-12-18T06:22:02;4.03;;;2.97;;
12852;SDS011;6495;51.808;7.478;2022-12-18T06:24:49;6.83;;;3.30;;
12852;SDS011;6495;51.808;7.478;2022-12-18T06:27:35;11.57;;;4.63;;
12852;SDS011;6495;51.808;7.478;2022-12-18T06:30:22;11.37;;;4.30;;
12852;SDS011;6495;51.808;7.478;2022-12-18T06:33:09;7.57;;;2.90;;
12852;SDS011;6495;51.808;7.478;2022-12-18T06:36:00;7.57;;;4.70;;
12852;SDS011;6495;51.808;7.478;2022-12-18T06:38:49;4.47;;;3.20;;
12852;SDS011;6495;51.808;7.478;2022-12-18T06:41:36;5.43;;;3.50;;
12852;SDS011;6495;51.808;7.478;2022-12-18T06:44:23;8.13;;;3.10;;
12852;SDS011;6495;51.808;7.478;2022-12-18T06:47:09;5.37;;;2.87;;
12852;SDS011;6495;51.808;7.478;2022-12-18T06:49:56;4.33;;;2.77;;
12852;SDS011;6495;51.808;7.478;2022-12-18T06:52:44;4.37;;;2.47;;
12852;SDS011;6495;51.808;7.478;2022-12-18T06:55:31;5.63;;;3.10;;
12852;SDS011;6495;51.808;7.478;2022-12-18T06:58:17;5.97;;;3.23;;
12852;SDS011;6495;51.808;7.478;2022-12-18T07:01:05;7.53;;;3.03;;
12852;SDS011;6495;51.808;7.478;2022-12-18T07:03:54;5.93;;;2.63;;
12852;SDS011;6495;51.808;7.478;2022-12-18T07:06:42;3.83;;;3.07;;
12852;SDS011;6495;51.808;7.478;2022-12-18T07:09:30;6.00;;;3.90;;
12852;SDS011;6495;51.808;7.478;2022-12-18T07:12:17;7.27;;;2.87;;
12852;SDS011;6495;51.808;7.478;2022-12-18T07:15:04;8.27;;;3.37;;
12852;SDS011;6495;51.808;7.478;2022-12-18T07:17:52;6.07;;;3.03;;
12852;SDS011;6495;51.808;7.478;2022-12-18T07:20:39;8.33;;;2.67;;
12852;SDS011;6495;51.808;7.478;2022-12-18T07:23:26;3.60;;;3.07;;
12852;SDS011;6495;51.808;7.478;2022-12-18T07:26:14;5.53;;;2.50;;
12852;SDS011;6495;51.808;7.478;2022-12-18T07:29:04;4.37;;;1.93;;
12852;SDS011;6495;51.808;7.478;2022-12-18T07:31:51;5.43;;;3.07;;
12852;SDS011;6495;51.808;7.478;2022-12-18T07:34:37;5.50;;;2.33;;
12852;SDS011;6495;51.808;7.478;2022-12-18T07:37:24;5.63;;;3.97;;
12852;SDS011;6495;51.808;7.478;2022-12-18T07:40:11;4.17;;;2.97;;
12852;SDS011;6495;51.808;7.478;2022-12-18T07:42:59;3.57;;;2.20;;
12852;SDS011;6495;51.808;7.478;2022-12-18T07:45:48;3.77;;;3.20;;
12852;SDS011;6495;51.808;7.478;2022-12-18T07:48:35;5.97;;;2.67;;
12852;SDS011;6495;51.808;7.478;2022-12-18T07:51:22;4.80;;;3.37;;
12852;SDS011;6495;51.808;7.478;2022-12-18T07:54:08;3.23;;;2.73;;
12852;SDS011;6495;51.808;7.478;2022-12-18T07:56:55;2.63;;;2.43;;
12852;SDS011;6495;51.808;7.478;2022-12-18T07:59:43;6.77;;;2.73;;
12852;SDS011;6495;51.808;7.478;2022-12-18T08:02:30;6.87;;;3.57;;
12852;SDS011;6495;51.808;7.478;2022-12-18T08:05:17;2.17;;;1.83;;
12852;SDS011;6495;51.808;7.478;2022-12-18T08:08:03;5.00;;;2.30;;
12852;SDS011;6495;51.808;7.478;2022-12-18T08:10:50;3.97;;;2.93;;
12852;SDS011;6495;51.808;7.478;2022-12-18T08:13:37;7.10;;;3.30;;
12852;SDS011;6495;51.808;7.478;2022-12-18T08:16:25;5.90;;;3.00;;
12852;SDS011;6495;51.808;7.478;2022-12-18T08:19:12;7.53;;;3.17;;
12852;SDS011;6495;51.808;7.478;2022-12-18T08:21:59;6.53;;;2.43;;
12852;SDS011;6495;51.808;7.478;2022-12-18T08:24:45;6.60;;;2.90;;
12852;SDS011;6495;51.808;7.478;2022-12-18T08:27:32;6.10;;;2.90;;
12852;SDS011;6495;51.808;7.478;2022-12-18T08:30:19;4.53;;;2.13;;
12852;SDS011;6495;51.808;7.478;2022-12-18T08:33:07;4.37;;;3.47;;
12852;SDS011;6495;51.808;7.478;2022-12-18T08:35:54;6.40;;;3.10;;
12852;SDS011;6495;51.808;7.478;2022-12-18T08:38:41;5.20;;;3.40;;
12852;SDS011;6495;51.808;7.478;2022-12-18T08:41:28;3.37;;;2.70;;
12852;SDS011;6495;51.808;7.478;2022-12-18T08:44:15;6.23;;;2.80;;
12852;SDS011;6495;51.808;7.478;2022-12-18T08:47:19;6.27;;;3.17;;
12852;SDS011;6495;51.808;7.478;2022-12-18T08:50:08;5.17;;;2.73;;
12852;SDS011;6495;51.808;7.478;2022-12-18T08:52:56;5.63;;;3.10;;
12852;SDS011;6495;51.808;7.478;2022-12-18T08:55:43;7.03;;;2.60;;
12852;SDS011;6495;51.808;7.478;2022-12-18T08:58:34;4.03;;;2.50;;
12852;SDS011;6495;51.808;7.478;2022-12-18T09:01:21;7.40;;;3.07;;
12852;SDS011;6495;51.808;7.478;2022-12-18T09:04:09;5.73;;;2.87;;
12852;SDS011;6495;51.808;7.478;2022-12-18T09:06:57;7.53;;;4.10;;
12852;SDS011;6495;51.808;7.478;2022-12-18T09:09:44;5.63;;;3.30;;
12852;SDS011;6495;51.808;7.478;2022-12-18T09:12:32;6.80;;;3.30;;
12852;SDS011;6495;51.808;7.478;2022-12-18T09:15:18;5.23;;;2.77;;
12852;SDS011;6495;51.808;7.478;2022-12-18T09:18:05;4.67;;;2.80;;
12852;SDS011;6495;51.808;7.478;2022-12-18T09:20:52;5.70;;;2.87;;
12852;SDS011;6495;51.808;7.478;2022-12-18T09:23:40;4.57;;;3.03;;
12852;SDS011;6495;51.808;7.478;2022-12-18T09:26:27;3.20;;;2.63;;
12852;SDS011;6495;51.808;7.478;2022-12-18T09:29:14;6.30;;;3.57;;
12852;SDS011;6495;51.808;7.478;2022-12-18T09:32:03;5.53;;;2.90;;
12852;SDS011;6495;51.808;7.478;2022-12-18T09:34:52;7.37;;;2.57;;
12852;SDS011;6495;51.808;7.478;2022-12-18T09:37:38;5.53;;;3.37;;
12852;SDS011;6495;51.808;7.478;2022-12-18T09:40:32;5.13;;;2.53;;
12852;SDS011;6495;51.808;7.478;2022-12-18T09:43:29;4.43;;;2.63;;
12852;SDS011;6495;51.808;7.478;2022-12-18T09:46:34;5.23;;;3.27;;
12852;SDS011;6495;51.808;7.478;2022-12-18T09:49:26;5.87;;;2.77;;
12852;SDS011;6495;51.808;7.478;2022-12-18T09:52:17;4.73;;;2.57;;
12852;SDS011;6495;51.808;7.478;2022-12-18T09:55:11;4.73;;;2.20;;
12852;SDS011;6495;51.808;7.478;2022-12-18T09:58:11;4.40;;;2.93;;
12852;SDS011;6495;51.808;7.478;2022-12-18T10:01:07;4.47;;;2.80;;
12852;SDS011;6495;51.808;7.478;2022-12-18T10:03:56;4.27;;;2.70;;
12852;SDS011;6495;51.808;7.478;2022-12-18T10:06:45;5.87;;;3.33;;
12852;SDS011;6495;51.808;7.478;2022-12-18T10:09:42;4.07;;;2.70;;
12852;SDS011;6495;51.808;7.478;2022-12-18T10:12:41;2.80;;;2.40;;
12852;SDS011;6495;51.808;7.478;2022-12-18T10:15:39;7.20;;;2.70;;
12852;SDS011;6495;51.808;7.478;2022-12-18T10:18:50;6.13;;;3.23;;
12852;SDS011;6495;51.808;7.478;2022-12-18T10:21:56;5.70;;;3.10;;
12852;SDS011;6495;51.808;7.478;2022-12-18T10:24:58;3.90;;;2.40;;
12852;SDS011;6495;51.808;7.478;2022-12-18T10:27:51;4.27;;;2.50;;
12852;SDS011;6495;51.808;7.478;2022-12-18T10:30:47;3.83;;;2.33;;
12852;SDS011;6495;51.808;7.478;2022-12-18T10:33:33;4.20;;;3.10;;
12852;SDS011;6495;51.808;7.478;2022-12-18T10:36:20;3.87;;;2.93;;
12852;SDS011;6495;51.808;7.478;2022-12-18T10:39:16;4.13;;;2.67;;
12852;SDS011;6495;51.808;7.478;2022-12-18T10:42:09;3.33;;;2.47;;
12852;SDS011;6495;51.808;7.478;2022-12-18T10:45:03;6.70;;;2.77;;
12852;SDS011;6495;51.808;7.478;2022-12-18T10:47:58;8.57;;;2.83;;
12852;SDS011;6495;51.808;7.478;2022-12-18T10:50:46;4.30;;;2.70;;
12852;SDS011;6495;51.808;7.478;2022-12-18T10:53:57;3.67;;;2.63;;
12852;SDS011;6495;51.808;7.478;2022-12-18T10:56:50;5.70;;;2.87;;
12852;SDS011;6495;51.808;7.478;2022-12-18T10:59:38;5.33;;;3.20;;
12852;SDS011;6495;51.808;7.478;2022-12-18T11:02:38;8.93;;;2.90;;
12852;SDS011;6495;51.808;7.478;2022-12-18T11:05:28;3.50;;;2.07;;
12852;SDS011;6495;51.808;7.478;2022-12-18T11:08:19;3.97;;;2.67;;
12852;SDS011;6495;51.808;7.478;2022-12-18T11:11:15;6.07;;;3.53;;
12852;SDS011;6495;51.808;7.478;2022-12-18T11:14:06;11.10;;;3.10;;
12852;SDS011;6495;51.808;7.478;2022-12-18T11:17:03;3.77;;;2.70;;
12852;SDS011;6495;51.808;7.478;2022-12-18T11:20:19;5.20;;;3.20;;
12852;SDS011;6495;51.808;7.478;2022-12-18T11:23:20;6.90;;;3.47;;
12852;SDS011;6495;51.808;7.478;2022-12-18T11:26:09;4.80;;;2.50;;
12852;SDS011;6495;51.808;7.478;2022-12-18T11:29:07;6.27;;;3.70;;
12852;SDS011;6495;51.808;7.478;2022-12-18T11:35:32;6.40;;;3.50;;
12852;SDS011;6495;51.808;7.478;2022-12-18T11:38:31;4.97;;;2.77;;
12852;SDS011;6495;51.808;7.478;2022-12-18T11:41:23;6.23;;;3.57;;
12852;SDS011;6495;51.808;7.478;2022-12-18T11:44:35;4.47;;;2.97;;
12852;SDS011;6495;51.808;7.478;2022-12-18T11:47:30;4.80;;;3.03;;
12852;SDS011;6495;51.808;7.478;2022-12-18T11:50:25;5.83;;;3.40;;
12852;SDS011;6495;51.808;7.478;2022-12-18T11:53:21;9.70;;;3.77;;
12852;SDS011;6495;51.808;7.478;2022-12-18T11:56:14;5.97;;;3.50;;
12852;SDS011;6495;51.808;7.478;2022-12-18T11:59:16;8.50;;;3.00;;
12852;SDS011;6495;51.808;7.478;2022-12-18T12:02:19;7.60;;;4.40;;
12852;SDS011;6495;51.808;7.478;2022-12-18T12:05:30;10.53;;;3.50;;
12852;SDS011;6495;51.808;7.478;2022-12-18T12:08:38;3.70;;;3.17;;
12852;SDS011;6495;51.808;7.478;2022-12-18T12:11:50;7.63;;;4.30;;
12852;SDS011;6495;51.808;7.478;2022-12-18T12:14:57;10.73;;;3.93;;
12852;SDS011;6495;51.808;7.478;2022-12-18T12:18:00;6.23;;;3.83;;
12852;SDS011;6495;51.808;7.478;2022-12-18T12:21:01;7.97;;;3.97;;
12852;SDS011;6495;51.808;7.478;2022-12-18T12:24:00;7.47;;;3.67;;
12852;SDS011;6495;51.808;7.478;2022-12-18T12:27:06;7.20;;;3.90;;
12852;SDS011;6495;51.808;7.478;2022-12-18T12:30:06;8.17;;;4.03;;
12852;SDS011;6495;51.808;7.478;2022-12-18T12:33:02;4.83;;;3.50;;
12852;SDS011;6495;51.808;7.478;2022-12-18T12:36:07;8.03;;;4.80;;
12852;SDS011;6495;51.808;7.478;2022-12-18T12:39:08;5.53;;;3.87;;
12852;SDS011;6495;51.808;7.478;2022-12-18T12:42:00;8.70;;;4.43;;
12852;SDS011;6495;51.808;7.478;2022-12-18T12:45:20;8.20;;;4.50;;
12852;SDS011;6495;51.808;7.478;2022-12-18T12:48:16;6.50;;;3.93;;
12852;SDS011;6495;51.808;7.478;2022-12-18T12:51:15;8.43;;;4.70;;
12852;SDS011;6495;51.808;7.478;2022-12-18T12:54:06;8.47;;;4.57;;
12852;SDS011;6495;51.808;7.478;2022-12-18T12:57:05;6.60;;;3.43;;
12852;SDS011;6495;51.808;7.478;2022-12-18T12:59:59;6.10;;;3.80;;
12852;SDS011;6495;51.808;7.478;2022-12-18T13:02:56;6.77;;;3.60;;
12852;SDS011;6495;51.808;7.478;2022-12-18T13:05:59;5.80;;;3.70;;
12852;SDS011;6495;51.808;7.478;2022-12-18T13:08:55;11.43;;;4.10;;
12852;SDS011;6495;51.808;7.478;2022-12-18T13:11:46;9.27;;;4.17;;
12852;SDS011;6495;51.808;7.478;2022-12-18T13:14:52;6.13;;;3.43;;
12852;SDS011;6495;51.808;7.478;2022-12-18T13:17:39;6.97;;;4.00;;
12852;SDS011;6495;51.808;7.478;2022-12-18T13:20:29;6.93;;;3.70;;
12852;SDS011;6495;51.808;7.478;2022-12-18T13:23:27;6.37;;;3.77;;
12852;SDS011;6495;51.808;7.478;2022-12-18T13:26:28;10.60;;;4.43;;
12852;SDS011;6495;51.808;7.478;2022-12-18T13:32:31;7.50;;;3.67;;
12852;SDS011;6495;51.808;7.478;2022-12-18T13:35:37;5.83;;;4.00;;
12852;SDS011;6495;51.808;7.478;2022-12-18T13:38:32;6.00;;;4.23;;
12852;SDS011;6495;51.808;7.478;2022-12-18T13:41:22;4.40;;;3.40;;
12852;SDS011;6495;51.808;7.478;2022-12-18T13:44:12;5.50;;;3.50;;
12852;SDS011;6495;51.808;7.478;2022-12-18T13:47:25;8.63;;;4.40;;
12852;SDS011;6495;51.808;7.478;2022-12-18T13:50:20;6.37;;;4.00;;
12852;SDS011;6495;51.808;7.478;2022-12-18T13:53:20;6.43;;;4.00;;
12852;SDS011;6495;51.808;7.478;2022-12-18T13:56:15;6.70;;;4.40;;
12852;SDS011;6495;51.808;7.478;2022-12-18T13:59:13;9.20;;;4.50;;
12852;SDS011;6495;51.808;7.478;2022-12-18T14:02:11;5.57;;;3.90;;
12852;SDS011;6495;51.808;7.478;2022-12-18T14:05:03;8.43;;;3.90;;
12852;SDS011;6495;51.808;7.478;2022-12-18T14:07:50;7.93;;;4.50;;
12852;SDS011;6495;51.808;7.478;2022-12-18T14:10:39;8.23;;;3.83;;
12852;SDS011;6495;51.808;7.478;2022-12-18T14:13:35;6.37;;;4.00;;
12852;SDS011;6495;51.808;7.478;2022-12-18T14:16:26;7.90;;;4.40;;
12852;SDS011;6495;51.808;7.478;2022-12-18T14:19:16;6.67;;;3.90;;
12852;SDS011;6495;51.808;7.478;2022-12-18T14:22:04;6.73;;;4.03;;
12852;SDS011;6495;51.808;7.478;2022-12-18T14:25:04;9.40;;;4.47;;
12852;SDS011;6495;51.808;7.478;2022-12-18T14:28:02;9.90;;;4.03;;
12852;SDS011;6495;51.808;7.478;2022-12-18T14:30:59;8.10;;;4.10;;
12852;SDS011;6495;51.808;7.478;2022-12-18T14:33:46;6.50;;;3.87;;
12852;SDS011;6495;51.808;7.478;2022-12-18T14:36:34;9.10;;;4.00;;
12852;SDS011;6495;51.808;7.478;2022-12-18T14:39:20;8.77;;;4.67;;
12852;SDS011;6495;51.808;7.478;2022-12-18T14:42:10;8.13;;;4.13;;
12852;SDS011;6495;51.808;7.478;2022-12-18T14:48:36;6.37;;;3.47;;
12852;SDS011;6495;51.808;7.478;2022-12-18T14:51:29;6.07;;;3.77;;
12852;SDS011;6495;51.808;7.478;2022-12-18T14:54:20;5.83;;;3.50;;
12852;SDS011;6495;51.808;7.478;2022-12-18T14:57:14;5.07;;;2.90;;
12852;SDS011;6495;51.808;7.478;2022-12-18T15:00:13;6.33;;;4.20;;
12852;SDS011;6495;51.808;7.478;2022-12-18T15:03:05;5.57;;;3.60;;
12852;SDS011;6495;51.808;7.478;2022-12-18T15:05:54;5.60;;;3.27;;
12852;SDS011;6495;51.808;7.478;2022-12-18T15:08:42;6.10;;;3.20;;
12852;SDS011;6495;51.808;7.478;2022-12-18T15:11:35;8.17;;;4.10;;
12852;SDS011;6495;51.808;7.478;2022-12-18T15:14:37;4.70;;;3.27;;
12852;SDS011;6495;51.808;7.478;2022-12-18T15:17:28;4.90;;;3.10;;
12852;SDS011;6495;51.808;7.478;2022-12-18T15:20:16;5.50;;;3.23;;
12852;SDS011;6495;51.808;7.478;2022-12-18T15:23:02;6.27;;;4.13;;
12852;SDS011;6495;51.808;7.478;2022-12-18T15:25:57;5.70;;;3.37;;
12852;SDS011;6495;51.808;7.478;2022-12-18T15:28:48;4.30;;;3.00;;
12852;SDS011;6495;51.808;7.478;2022-12-18T15:31:37;6.87;;;3.80;;
12852;SDS011;6495;51.808;7.478;2022-12-18T15:34:24;5.00;;;3.50;;
12852;SDS011;6495;51.808;7.478;2022-12-18T15:37:10;6.47;;;3.73;;
12852;SDS011;6495;51.808;7.478;2022-12-18T15:40:00;5.77;;;2.87;;
12852;SDS011;6495;51.808;7.478;2022-12-18T15:42:47;6.30;;;3.63;;
12852;SDS011;6495;51.808;7.478;2022-12-18T15:45:57;4.93;;;3.80;;
12852;SDS011;6495;51.808;7.478;2022-12-18T15:48:45;7.03;;;3.83;;
12852;SDS011;6495;51.808;7.478;2022-12-18T15:51:34;8.47;;;3.77;;
12852;SDS011;6495;51.808;7.478;2022-12-18T15:54:24;7.93;;;4.40;;
12852;SDS011;6495;51.808;7.478;2022-12-18T15:57:25;6.63;;;3.80;;
12852;SDS011;6495;51.808;7.478;2022-12-18T16:00:12;8.23;;;4.23;;
12852;SDS011;6495;51.808;7.478;2022-12-18T16:03:01;6.93;;;3.73;;
12852;SDS011;6495;51.808;7.478;2022-12-18T16:05:49;5.70;;;3.70;;
12852;SDS011;6495;51.808;7.478;2022-12-18T16:08:36;6.70;;;4.30;;
12852;SDS011;6495;51.808;7.478;2022-12-18T16:11:24;6.40;;;3.80;;
12852;SDS011;6495;51.808;7.478;2022-12-18T16:14:26;6.47;;;3.73;;
12852;SDS011;6495;51.808;7.478;2022-12-18T16:17:16;9.27;;;4.07;;
12852;SDS011;6495;51.808;7.478;2022-12-18T16:20:05;9.03;;;4.33;;
12852;SDS011;6495;51.808;7.478;2022-12-18T16:22:59;5.03;;;3.63;;
12852;SDS011;6495;51.808;7.478;2022-12-18T16:25:46;6.17;;;3.90;;
12852;SDS011;6495;51.808;7.478;2022-12-18T16:28:33;5.63;;;3.40;;
12852;SDS011;6495;51.808;7.478;2022-12-18T16:31:20;11.00;;;4.57;;
12852;SDS011;6495;51.808;7.478;2022-12-18T16:34:11;6.07;;;3.90;;
12852;SDS011;6495;51.808;7.478;2022-12-18T16:37:01;4.93;;;3.90;;
12852;SDS011;6495;51.808;7.478;2022-12-18T16:39:50;7.73;;;4.17;;
12852;SDS011;6495;51.808;7.478;2022-12-18T16:42:37;6.67;;;3.33;;
12852;SDS011;6495;51.808;7.478;2022-12-18T16:45:27;7.23;;;3.97;;
12852;SDS011;6495;51.808;7.478;2022-12-18T16:48:17;4.83;;;3.27;;
12852;SDS011;6495;51.808;7.478;2022-12-18T16:51:04;6.93;;;3.90;;
12852;SDS011;6495;51.808;7.478;2022-12-18T16:53:53;8.30;;;4.40;;
12852;SDS011;6495;51.808;7.478;2022-12-18T16:56:40;6.40;;;4.03;;
12852;SDS011;6495;51.808;7.478;2022-12-18T16:59:34;5.53;;;3.67;;
12852;SDS011;6495;51.808;7.478;2022-12-18T17:02:21;7.47;;;4.60;;
12852;SDS011;6495;51.808;7.478;2022-12-18T17:05:11;5.10;;;3.50;;
12852;SDS011;6495;51.808;7.478;2022-12-18T17:07:58;4.70;;;3.47;;
12852;SDS011;6495;51.808;7.478;2022-12-18T17:10:46;6.77;;;4.10;;
12852;SDS011;6495;51.808;7.478;2022-12-18T17:13:33;6.37;;;4.57;;
12852;SDS011;6495;51.808;7.478;2022-12-18T17:16:20;6.93;;;3.77;;
12852;SDS011;6495;51.808;7.478;2022-12-18T17:19:07;6.83;;;4.20;;
12852;SDS011;6495;51.808;7.478;2022-12-18T17:22:01;8.77;;;4.63;;
12852;SDS011;6495;51.808;7.478;2022-12-18T17:24:48;7.00;;;3.70;;
12852;SDS011;6495;51.808;7.478;2022-12-18T17:27:37;9.97;;;4.30;;
12852;SDS011;6495;51.808;7.478;2022-12-18T17:30:26;6.87;;;4.40;;
12852;SDS011;6495;51.808;7.478;2022-12-18T17:33:14;7.80;;;4.53;;
12852;SDS011;6495;51.808;7.478;2022-12-18T17:36:01;5.57;;;4.03;;